createdAt,value
2022-08-25T00:00:21.673Z,13.80
2022-08-25T00:02:55.466Z,13.70
2022-08-25T00:05:32.152Z,13.70
2022-08-25T00:08:07.807Z,13.70
2022-08-25T00:10:38.414Z,13.70
2022-08-25T00:13:06.943Z,13.70
2022-08-25T00:15:35.226Z,13.70
2022-08-25T00:18:04.238Z,13.70
2022-08-25T00:20:39.522Z,13.70
2022-08-25T00:23:11.147Z,13.50
2022-08-25T00:25:40.198Z,13.40
2022-08-25T00:28:08.722Z,13.40
2022-08-25T00:30:38.720Z,13.30
2022-08-25T00:33:07.294Z,13.20
2022-08-25T00:35:35.881Z,13.20
2022-08-25T00:38:04.232Z,13.20
2022-08-25T00:40:32.569Z,13.20
2022-08-25T00:43:00.581Z,13.30
2022-08-25T00:45:29.532Z,13.30
2022-08-25T00:47:59.929Z,13.30
2022-08-25T00:50:32.108Z,13.20
2022-08-25T00:53:03.390Z,13.10
2022-08-25T00:55:37.298Z,13.10
2022-08-25T00:58:14.586Z,13.10
2022-08-25T01:00:46.842Z,13.00
2022-08-25T01:03:15.332Z,13.00
2022-08-25T01:05:44.573Z,13.00
2022-08-25T01:08:13.143Z,13.00
2022-08-25T01:10:46.440Z,12.90
2022-08-25T01:13:20.768Z,12.90
2022-08-25T01:15:52.939Z,12.80
2022-08-25T01:18:21.901Z,12.80
2022-08-25T01:20:54.559Z,12.80
2022-08-25T01:23:23.285Z,12.80
2022-08-25T01:26:19.651Z,13.00
2022-08-25T01:29:12.049Z,13.00
2022-08-25T01:31:41.749Z,13.00
2022-08-25T01:34:12.324Z,12.80
2022-08-25T01:36:43.869Z,12.90
2022-08-25T01:39:13.779Z,12.80
2022-08-25T01:42:18.196Z,12.70
2022-08-25T01:44:47.513Z,12.60
2022-08-25T01:47:16.246Z,12.60
2022-08-25T01:49:43.927Z,12.60
2022-08-25T01:52:29.870Z,12.60
2022-08-25T01:54:57.774Z,12.60
2022-08-25T01:57:26.218Z,12.70
2022-08-25T01:59:53.880Z,12.80
2022-08-25T02:02:22.352Z,12.70
2022-08-25T02:04:50.653Z,12.70
2022-08-25T02:07:19.412Z,12.60
2022-08-25T02:09:47.033Z,12.70
2022-08-25T02:12:15.446Z,12.50
2022-08-25T02:14:45.333Z,12.50
2022-08-25T02:17:15.919Z,12.50
2022-08-25T02:19:43.659Z,12.40
2022-08-25T02:22:11.886Z,12.40
2022-08-25T02:24:40.041Z,12.40
2022-08-25T02:27:08.502Z,12.20
2022-08-25T02:29:35.664Z,12.20
2022-08-25T02:32:04.355Z,12.20
2022-08-25T02:34:32.571Z,12.30
2022-08-25T02:36:59.789Z,12.20
2022-08-25T02:39:28.098Z,12.10
2022-08-25T02:41:56.739Z,12.10
2022-08-25T02:44:27.596Z,12.00
2022-08-25T02:46:55.642Z,11.90
2022-08-25T02:49:24.311Z,11.90
2022-08-25T02:51:51.876Z,11.80
2022-08-25T02:54:21.855Z,11.80
2022-08-25T02:56:49.943Z,11.70
2022-08-25T02:59:18.312Z,11.70
2022-08-25T03:01:45.881Z,11.70
2022-08-25T03:04:15.280Z,11.70
2022-08-25T03:06:43.651Z,11.80
2022-08-25T03:09:11.410Z,11.80
2022-08-25T03:11:38.697Z,11.90
2022-08-25T03:14:08.582Z,11.90
2022-08-25T03:16:37.516Z,11.90
2022-08-25T03:19:06.487Z,11.80
2022-08-25T03:21:34.910Z,11.80
2022-08-25T03:24:02.919Z,11.80
2022-08-25T03:26:49.774Z,11.80
2022-08-25T03:29:18.440Z,11.90
2022-08-25T03:31:46.924Z,11.90
2022-08-25T03:34:20.054Z,11.90
2022-08-25T03:36:53.750Z,11.80
2022-08-25T03:39:23.422Z,11.80
2022-08-25T03:41:52.638Z,11.70
2022-08-25T03:44:21.783Z,11.60
2022-08-25T03:46:51.905Z,11.50
2022-08-25T03:49:23.161Z,11.60
2022-08-25T03:51:53.841Z,11.50
2022-08-25T03:54:25.235Z,11.40
2022-08-25T03:56:53.384Z,11.40
2022-08-25T03:59:21.602Z,11.50
2022-08-25T04:01:54.541Z,11.50
2022-08-25T04:04:23.165Z,11.40
2022-08-25T04:06:53.052Z,11.40
2022-08-25T04:09:20.776Z,11.30
2022-08-25T04:11:49.294Z,11.30
2022-08-25T04:14:21.694Z,11.20
2022-08-25T04:16:50.644Z,11.30
2022-08-25T04:19:17.688Z,11.30
2022-08-25T04:21:46.023Z,11.20
2022-08-25T04:24:14.178Z,11.30
2022-08-25T04:26:46.635Z,11.30
2022-08-25T04:29:19.051Z,11.20
2022-08-25T04:31:53.039Z,11.20
2022-08-25T04:34:29.379Z,11.20
2022-08-25T04:36:59.545Z,11.20
2022-08-25T04:39:28.077Z,11.20
2022-08-25T04:41:55.770Z,11.20
2022-08-25T04:44:23.836Z,11.20
2022-08-25T04:46:50.800Z,11.30
2022-08-25T04:49:19.309Z,11.30
2022-08-25T04:51:47.257Z,11.30
2022-08-25T04:54:17.341Z,11.30
2022-08-25T04:56:45.385Z,11.50
2022-08-25T04:59:15.783Z,11.60
2022-08-25T05:01:44.099Z,11.70
2022-08-25T05:04:14.581Z,11.60
2022-08-25T05:06:56.738Z,11.60
2022-08-25T05:09:25.971Z,11.50
2022-08-25T05:11:54.860Z,11.60
2022-08-25T05:14:26.366Z,11.60
2022-08-25T05:16:57.310Z,11.60
2022-08-25T05:19:26.496Z,11.60
2022-08-25T05:21:55.231Z,11.60
2022-08-25T05:24:28.139Z,11.70
2022-08-25T05:26:56.122Z,11.70
2022-08-25T05:29:25.416Z,11.80
2022-08-25T05:31:53.709Z,12.10
2022-08-25T05:34:22.150Z,12.20
2022-08-25T05:36:51.566Z,12.20
2022-08-25T05:39:19.651Z,12.30
2022-08-25T05:41:46.849Z,12.40
2022-08-25T05:44:19.046Z,12.60
2022-08-25T05:46:47.842Z,12.70
2022-08-25T05:49:15.982Z,12.90
2022-08-25T05:51:43.732Z,12.90
2022-08-25T05:54:11.895Z,13.10
2022-08-25T05:56:40.101Z,13.30
2022-08-25T05:59:09.592Z,13.50
2022-08-25T06:01:55.261Z,13.70
2022-08-25T06:04:23.623Z,13.80
2022-08-25T06:06:53.852Z,13.90
2022-08-25T06:09:22.686Z,14.10
2022-08-25T06:11:54.516Z,14.30
2022-08-25T06:14:24.404Z,14.70
2022-08-25T06:16:52.346Z,14.90
2022-08-25T06:19:21.161Z,15.10
2022-08-25T06:21:49.895Z,15.50
2022-08-25T06:24:17.107Z,15.70
2022-08-25T06:26:45.247Z,15.70
2022-08-25T06:29:17.290Z,15.80
2022-08-25T06:31:46.731Z,15.80
2022-08-25T06:34:13.872Z,15.80
2022-08-25T06:36:42.224Z,15.80
2022-08-25T06:39:10.802Z,15.80
2022-08-25T06:41:39.167Z,15.80
2022-08-25T06:44:07.068Z,16.00
2022-08-25T06:46:36.397Z,16.00
2022-08-25T06:49:08.066Z,16.20
2022-08-25T06:51:36.440Z,16.40
2022-08-25T06:54:05.388Z,16.50
2022-08-25T06:56:34.596Z,16.50
2022-08-25T06:59:04.750Z,16.50
2022-08-25T07:01:32.389Z,16.50
2022-08-25T07:04:01.696Z,16.60
2022-08-25T07:06:31.848Z,16.70
2022-08-25T07:08:59.607Z,16.80
2022-08-25T07:11:28.330Z,17.00
2022-08-25T07:13:56.842Z,17.10
2022-08-25T07:16:29.012Z,17.20
2022-08-25T07:19:00.500Z,17.30
2022-08-25T07:21:33.369Z,17.40
2022-08-25T07:24:10.075Z,17.20
2022-08-25T07:26:42.110Z,17.20
2022-08-25T07:29:19.982Z,17.40
2022-08-25T07:31:48.694Z,17.60
2022-08-25T07:34:35.346Z,17.90
2022-08-25T07:37:06.841Z,18.20
2022-08-25T07:39:36.143Z,18.70
2022-08-25T07:42:05.527Z,19.60
2022-08-25T07:44:40.186Z,20.80
2022-08-25T07:47:10.863Z,21.80
2022-08-25T07:49:39.711Z,21.90
2022-08-25T07:52:09.044Z,22.40
2022-08-25T07:54:37.964Z,22.40
2022-08-25T07:57:08.207Z,23.30
2022-08-25T07:59:43.147Z,23.90
2022-08-25T08:02:18.260Z,23.50
2022-08-25T08:04:49.761Z,23.80
2022-08-25T08:07:23.725Z,24.70
2022-08-25T08:12:58.598Z,25.60
2022-08-25T08:15:29.778Z,25.40
2022-08-25T08:17:58.700Z,25.30
2022-08-25T08:20:28.773Z,25.80
2022-08-25T08:22:56.079Z,26.20
2022-08-25T08:25:27.123Z,26.20
2022-08-25T08:27:56.707Z,26.90
2022-08-25T08:30:26.236Z,27.80
2022-08-25T08:33:11.638Z,28.40
2022-08-25T08:35:41.545Z,27.90
2022-08-25T08:38:14.879Z,28.20
2022-08-25T08:41:54.310Z,28.00
2022-08-25T08:44:35.692Z,27.80
2022-08-25T08:47:33.088Z,27.40
2022-08-25T08:50:05.020Z,28.00
2022-08-25T08:53:03.628Z,28.30
2022-08-25T08:55:40.279Z,28.30
2022-08-25T08:58:26.665Z,28.10
2022-08-25T09:00:58.177Z,27.50
2022-08-25T09:03:42.796Z,27.70
2022-08-25T09:06:36.505Z,28.00
2022-08-25T09:09:06.866Z,27.90
2022-08-25T09:11:53.018Z,27.90
2022-08-25T09:14:39.852Z,27.60
2022-08-25T09:17:21.691Z,27.90
2022-08-25T09:20:18.997Z,27.80
2022-08-25T09:23:20.237Z,28.10
2022-08-25T09:26:07.275Z,28.20
2022-08-25T09:28:51.248Z,28.10
2022-08-25T09:31:35.501Z,28.30
2022-08-25T09:34:06.829Z,28.20
2022-08-25T09:36:37.784Z,28.30
2022-08-25T09:39:07.382Z,28.40
2022-08-25T09:41:52.230Z,28.60
2022-08-25T09:44:39.105Z,29.30
2022-08-25T09:47:18.104Z,29.10
2022-08-25T09:49:51.532Z,29.10
2022-08-25T09:52:25.200Z,28.80
2022-08-25T09:54:57.796Z,29.00
2022-08-25T09:57:33.693Z,28.80
2022-08-25T10:00:24.469Z,29.10
2022-08-25T10:03:28.253Z,29.40
2022-08-25T10:06:13.252Z,29.70
2022-08-25T10:08:46.824Z,29.50
2022-08-25T10:11:29.261Z,29.70
2022-08-25T10:14:18.316Z,30.40
2022-08-25T10:16:47.364Z,30.60
2022-08-25T10:19:28.729Z,30.80
2022-08-25T10:22:10.917Z,30.70
2022-08-25T10:24:44.170Z,29.80
2022-08-25T10:27:31.449Z,29.30
2022-08-25T10:30:23.473Z,29.40
2022-08-25T10:33:14.639Z,29.60
2022-08-25T10:35:59.124Z,29.70
2022-08-25T10:38:47.404Z,30.20
2022-08-25T10:41:22.397Z,30.60
2022-08-25T10:44:33.728Z,29.80
2022-08-25T10:47:34.851Z,30.00
2022-08-25T10:50:29.547Z,30.70
2022-08-25T10:53:21.094Z,31.40
2022-08-25T10:56:11.190Z,31.80
2022-08-25T10:58:39.105Z,32.20
2022-08-25T11:01:44.152Z,31.80
2022-08-25T11:04:22.016Z,31.80
2022-08-25T11:07:10.322Z,31.50
2022-08-25T11:09:43.131Z,31.10
2022-08-25T11:12:35.798Z,31.30
2022-08-25T11:15:28.600Z,32.50
2022-08-25T11:17:58.016Z,32.80
2022-08-25T11:20:33.683Z,32.70
2022-08-25T11:23:26.547Z,32.20
2022-08-25T11:26:00.446Z,32.10
2022-08-25T11:28:43.388Z,32.40
2022-08-25T11:31:11.782Z,33.30
2022-08-25T11:33:40.084Z,34.50
2022-08-25T11:36:30.874Z,33.90
2022-08-25T11:39:34.635Z,34.50
2022-08-25T11:42:36.327Z,34.80
2022-08-25T11:45:31.451Z,34.50
2022-08-25T11:48:22.118Z,34.30
2022-08-25T11:51:05.762Z,34.90
2022-08-25T11:53:35.852Z,35.40
2022-08-25T11:56:31.585Z,34.70
2022-08-25T11:59:01.235Z,33.80
2022-08-25T12:01:32.682Z,33.30
2022-08-25T12:04:33.804Z,33.60
2022-08-25T12:07:07.344Z,34.50
2022-08-25T12:09:55.669Z,34.20
2022-08-25T12:12:35.745Z,34.60
2022-08-25T12:15:55.956Z,35.00
2022-08-25T12:18:22.922Z,35.20
2022-08-25T12:20:56.299Z,35.80
2022-08-25T12:23:37.757Z,36.20
2022-08-25T12:26:38.608Z,36.00
2022-08-25T12:29:15.157Z,36.20
2022-08-25T12:32:16.329Z,36.40
2022-08-25T12:35:12.190Z,36.50
2022-08-25T12:38:19.099Z,36.20
2022-08-25T12:40:47.242Z,35.00
2022-08-25T12:43:28.874Z,34.30
2022-08-25T12:46:20.166Z,34.40
2022-08-25T12:49:00.410Z,35.50
2022-08-25T12:51:40.092Z,36.40
2022-08-25T12:54:25.577Z,36.50
2022-08-25T12:56:58.688Z,37.10
2022-08-25T12:59:36.333Z,37.40
2022-08-25T13:02:13.386Z,37.40
2022-08-25T13:05:11.748Z,37.10
2022-08-25T13:08:00.467Z,37.30
2022-08-25T13:10:57.874Z,37.40
2022-08-25T13:14:00.536Z,38.20
2022-08-25T13:16:30.307Z,38.30
2022-08-25T13:19:03.686Z,38.30
2022-08-25T13:21:38.229Z,38.10
2022-08-25T13:24:18.704Z,38.80
2022-08-25T13:26:48.840Z,38.90
2022-08-25T13:29:35.096Z,38.40
2022-08-25T13:32:14.762Z,38.00
2022-08-25T13:34:43.922Z,37.90
2022-08-25T13:37:27.742Z,38.70
2022-08-25T13:40:29.579Z,38.70
2022-08-25T13:43:02.698Z,39.00
2022-08-25T13:45:41.470Z,38.20
2022-08-25T13:48:22.419Z,38.40
2022-08-25T13:50:52.886Z,38.70
2022-08-25T13:53:26.069Z,38.60
2022-08-25T13:55:59.143Z,38.30
2022-08-25T13:58:45.277Z,38.70
2022-08-25T14:01:47.650Z,39.50
2022-08-25T14:04:22.583Z,39.70
2022-08-25T14:07:21.676Z,39.10
2022-08-25T14:09:53.630Z,39.30
2022-08-25T14:12:35.882Z,39.50
2022-08-25T14:15:27.532Z,39.30
2022-08-25T14:18:02.727Z,39.60
2022-08-25T14:20:32.203Z,40.00
2022-08-25T14:23:09.893Z,39.40
2022-08-25T14:25:40.765Z,38.60
2022-08-25T14:28:14.036Z,38.40
2022-08-25T14:30:46.620Z,38.10
2022-08-25T14:33:16.657Z,36.90
2022-08-25T14:35:49.152Z,36.70
2022-08-25T14:38:17.766Z,36.50
2022-08-25T14:40:46.711Z,35.50
2022-08-25T14:43:15.726Z,34.80
2022-08-25T14:45:48.223Z,34.10
2022-08-25T14:48:42.353Z,33.80
2022-08-25T14:51:12.937Z,33.10
2022-08-25T14:53:42.604Z,32.50
2022-08-25T14:56:10.762Z,31.70
2022-08-25T14:58:50.956Z,31.20
2022-08-25T15:01:29.029Z,30.60
2022-08-25T15:04:06.171Z,29.90
2022-08-25T15:06:35.974Z,29.30
2022-08-25T15:09:08.401Z,29.20
2022-08-25T15:11:41.500Z,29.00
2022-08-25T15:14:11.193Z,29.10
2022-08-25T15:16:46.971Z,28.90
2022-08-25T15:19:16.530Z,28.70
2022-08-25T15:21:47.045Z,28.50
2022-08-25T15:24:17.419Z,28.60
2022-08-25T15:29:21.033Z,28.50
2022-08-25T15:31:50.061Z,28.40
2022-08-25T15:34:18.405Z,28.30
2022-08-25T15:36:47.530Z,28.30
2022-08-25T15:39:18.788Z,28.20
2022-08-25T15:41:52.426Z,28.10
2022-08-25T15:44:24.095Z,28.00
2022-08-25T15:46:54.743Z,28.00
2022-08-25T15:49:24.602Z,27.90
2022-08-25T15:51:54.336Z,27.90
2022-08-25T15:54:27.052Z,27.80
2022-08-25T15:56:56.917Z,27.70
2022-08-25T15:59:25.750Z,27.70
2022-08-25T16:01:55.920Z,27.60
2022-08-25T16:04:27.697Z,27.50
2022-08-25T16:06:55.774Z,27.50
2022-08-25T16:09:23.868Z,27.50
2022-08-25T16:11:56.628Z,27.30
2022-08-25T16:14:26.227Z,27.20
2022-08-25T16:16:58.009Z,27.10
2022-08-25T16:19:28.450Z,27.10
2022-08-25T16:21:58.046Z,27.10
2022-08-25T16:24:25.434Z,26.90
2022-08-25T16:27:00.259Z,26.80
2022-08-25T16:29:36.039Z,26.70
2022-08-25T16:32:08.180Z,26.70
2022-08-25T16:34:36.646Z,26.50
2022-08-25T16:37:05.237Z,26.40
2022-08-25T16:39:34.337Z,26.50
2022-08-25T16:42:01.108Z,26.40
2022-08-25T16:44:28.299Z,26.40
2022-08-25T16:46:57.604Z,26.30
2022-08-25T16:49:25.752Z,26.20
2022-08-25T16:51:57.176Z,26.10
2022-08-25T16:54:45.169Z,26.10
2022-08-25T16:57:13.945Z,26.00
2022-08-25T16:59:43.923Z,26.00
2022-08-25T17:02:12.525Z,25.80
2022-08-25T17:04:40.779Z,25.70
2022-08-25T17:07:08.932Z,25.60
2022-08-25T17:09:36.450Z,25.50
2022-08-25T17:12:05.765Z,25.40
2022-08-25T17:14:33.315Z,25.30
2022-08-25T17:17:02.646Z,25.10
2022-08-25T17:19:34.287Z,25.00
2022-08-25T17:22:02.599Z,24.80
2022-08-25T17:24:31.714Z,24.60
2022-08-25T17:27:02.154Z,24.50
2022-08-25T17:29:29.745Z,24.30
2022-08-25T17:31:59.227Z,24.20
2022-08-25T17:34:27.981Z,24.10
2022-08-25T17:36:56.145Z,23.90
2022-08-25T17:39:25.287Z,23.80
2022-08-25T17:41:52.543Z,23.70
2022-08-25T17:44:20.787Z,23.50
2022-08-25T17:46:48.500Z,23.30
2022-08-25T17:49:17.304Z,23.20
2022-08-25T17:51:45.478Z,23.00
2022-08-25T17:54:14.756Z,22.80
2022-08-25T17:56:43.232Z,22.70
2022-08-25T17:59:11.880Z,22.50
2022-08-25T18:01:41.017Z,22.40
2022-08-25T18:04:16.959Z,22.30
2022-08-25T18:06:48.483Z,22.20
2022-08-25T18:09:17.400Z,22.10
2022-08-25T18:11:46.835Z,21.90
2022-08-25T18:14:16.547Z,21.80
2022-08-25T18:16:45.839Z,21.50
2022-08-25T18:19:14.544Z,21.50
2022-08-25T18:21:43.483Z,21.20
2022-08-25T18:24:11.497Z,21.10
2022-08-25T18:26:41.345Z,21.10
2022-08-25T18:29:12.821Z,21.00
2022-08-25T18:31:41.794Z,20.90
2022-08-25T18:34:11.183Z,20.80
2022-08-25T18:36:39.513Z,20.70
2022-08-25T18:39:26.230Z,20.60
2022-08-25T18:41:53.552Z,20.60
2022-08-25T18:44:21.547Z,20.50
2022-08-25T18:46:49.847Z,20.40
2022-08-25T18:49:17.478Z,20.30
2022-08-25T18:51:47.006Z,20.20
2022-08-25T18:54:22.727Z,20.10
2022-08-25T18:56:53.278Z,20.10
2022-08-25T18:59:23.350Z,19.90
2022-08-25T19:01:54.233Z,19.80
2022-08-25T19:04:28.544Z,19.60
2022-08-25T19:07:01.025Z,19.50
2022-08-25T19:09:28.502Z,19.40
2022-08-25T19:11:57.256Z,19.30
2022-08-25T19:14:24.536Z,19.20
2022-08-25T19:16:57.756Z,19.10
2022-08-25T19:19:25.590Z,19.10
2022-08-25T19:21:53.611Z,19.00
2022-08-25T19:24:21.903Z,18.80
2022-08-25T19:26:54.167Z,18.70
2022-08-25T19:29:24.006Z,18.80
2022-08-25T19:31:53.280Z,18.80
2022-08-25T19:34:30.226Z,18.80
2022-08-25T19:36:59.678Z,18.70
2022-08-25T19:39:28.729Z,18.50
2022-08-25T19:41:58.613Z,18.40
2022-08-25T19:44:28.879Z,18.40
2022-08-25T19:46:57.227Z,18.40
2022-08-25T19:49:31.955Z,18.30
2022-08-25T19:52:05.222Z,18.20
2022-08-25T19:54:44.366Z,18.00
2022-08-25T19:57:28.359Z,18.00
2022-08-25T20:00:09.377Z,17.80
2022-08-25T20:02:41.854Z,17.70
2022-08-25T20:05:12.428Z,17.70
2022-08-25T20:07:41.423Z,17.70
2022-08-25T20:10:14.167Z,17.80
2022-08-25T20:12:44.664Z,17.90
2022-08-25T20:15:14.142Z,18.00
2022-08-25T20:17:43.423Z,18.10
2022-08-25T20:20:16.819Z,18.10
2022-08-25T20:22:45.816Z,18.00
2022-08-25T20:25:36.763Z,18.10
2022-08-25T20:28:04.912Z,18.00
2022-08-25T20:30:32.505Z,18.10
2022-08-25T20:32:59.874Z,18.10
2022-08-25T20:35:29.012Z,18.00
2022-08-25T20:37:58.372Z,18.00
2022-08-25T20:40:28.622Z,18.00
2022-08-25T20:43:03.527Z,18.00
2022-08-25T20:45:30.632Z,18.00
2022-08-25T20:47:59.031Z,17.90
2022-08-25T20:50:27.026Z,17.90
2022-08-25T20:52:56.749Z,17.90
2022-08-25T20:55:24.937Z,17.90
2022-08-25T20:57:55.118Z,17.90
2022-08-25T21:00:22.803Z,18.00
2022-08-25T21:02:52.953Z,18.00
2022-08-25T21:05:21.440Z,18.00
2022-08-25T21:07:48.990Z,18.00
2022-08-25T21:10:17.074Z,18.00
2022-08-25T21:12:45.113Z,17.90
2022-08-25T21:15:17.028Z,18.00
2022-08-25T21:17:49.634Z,18.00
2022-08-25T21:20:18.392Z,18.10
2022-08-25T21:22:46.860Z,18.10
2022-08-25T21:25:14.532Z,18.20
2022-08-25T21:27:41.476Z,18.30
2022-08-25T21:30:12.531Z,18.30
2022-08-25T21:32:39.501Z,18.30
2022-08-25T21:35:24.787Z,18.30
2022-08-25T21:37:53.743Z,18.10
2022-08-25T21:40:23.354Z,17.90
2022-08-25T21:42:51.078Z,17.70
2022-08-25T21:45:20.887Z,17.60
2022-08-25T21:47:49.682Z,17.60
2022-08-25T21:50:17.663Z,17.70
2022-08-25T21:52:45.508Z,17.60
2022-08-25T21:55:16.264Z,17.60
2022-08-25T21:57:44.519Z,17.50
2022-08-25T22:00:14.461Z,17.50
2022-08-25T22:02:44.531Z,17.50
2022-08-25T22:05:13.093Z,17.50
2022-08-25T22:07:44.205Z,17.50
2022-08-25T22:10:16.611Z,17.50
2022-08-25T22:12:47.104Z,17.40
2022-08-25T22:15:16.817Z,17.40
2022-08-25T22:17:46.054Z,17.40
2022-08-25T22:20:18.113Z,17.30
2022-08-25T22:22:46.723Z,17.30
2022-08-25T22:25:15.045Z,17.30
2022-08-25T22:27:43.999Z,17.30
2022-08-25T22:30:13.661Z,17.30
2022-08-25T22:32:42.622Z,17.30
2022-08-25T22:35:12.947Z,17.30
2022-08-25T22:37:40.863Z,17.20
2022-08-25T22:40:09.277Z,17.10
2022-08-25T22:42:37.427Z,17.20
2022-08-25T22:45:07.187Z,17.10
2022-08-25T22:47:35.737Z,17.10
2022-08-25T22:50:05.399Z,17.10
2022-08-25T22:52:33.609Z,16.90
2022-08-25T22:55:03.091Z,16.80
2022-08-25T22:57:30.655Z,16.80
2022-08-25T22:59:59.340Z,16.80
2022-08-25T23:02:30.232Z,16.80
2022-08-25T23:05:00.967Z,16.80
2022-08-25T23:07:28.948Z,16.90
2022-08-25T23:09:59.993Z,16.80
2022-08-25T23:12:29.414Z,16.70
2022-08-25T23:14:57.457Z,16.60
2022-08-25T23:17:25.158Z,16.60
2022-08-25T23:19:53.117Z,16.50
2022-08-25T23:22:21.017Z,16.40
2022-08-25T23:24:53.598Z,16.40
2022-08-25T23:27:21.513Z,16.40
2022-08-25T23:29:50.207Z,16.30
2022-08-25T23:32:18.738Z,16.30
2022-08-25T23:34:47.287Z,16.30
2022-08-25T23:37:18.749Z,16.20
2022-08-25T23:39:49.461Z,16.20
2022-08-25T23:42:19.380Z,16.20
2022-08-25T23:44:47.858Z,16.10
2022-08-25T23:47:16.687Z,16.10
2022-08-25T23:49:43.708Z,16.10
2022-08-25T23:52:11.901Z,16.10
2022-08-25T23:54:39.771Z,16.10
2022-08-25T23:57:07.868Z,16.00
2022-08-25T23:59:38.308Z,15.90
